CheckWX is a tool to help pilots better visualize weather data.  It is not intended as a substitute for an official pre-flight weather briefing.

05:15:28 UTC

FDST METAR
Siteki Airport
Siteki, Swaziland
Current

15 mins ago

FDST 240500Z AUTO 00000KT //// // ////// 20/16 Q1013
Observed
Feb-24 @ 05:00 UTC
Visibility
Temperature
20°C / 68°F
Dewpoint
16°C / 61°F
Humidity
78%
Altimeter
29.91" Hg
Pressure
1012.92 hPa
Previous

1 hour ago

FDST 240400Z AUTO 00000KT //// // ////// 17/17 Q1013
Observed
Feb-24 @ 04:00 UTC
Visibility
Temperature
17°C / 63°F
Dewpoint
17°C / 63°F
Humidity
100%
Altimeter
29.91" Hg
Pressure
1012.92 hPa
Previous

3 hours ago

FDST 240200Z AUTO 00000KT //// // ////// 18/18 Q1013
Observed
Feb-24 @ 02:00 UTC
Visibility
Temperature
18°C / 64°F
Dewpoint
18°C / 64°F
Humidity
100%
Altimeter
29.91" Hg
Pressure
1012.92 hPa